sensor_id;sensor_type;location;lat;lon;timestamp;temperature;humidity
6740;DHT22;3407;49.882;10.920;2024-01-11T00:00:07;-4.80;99.90
6740;DHT22;3407;49.882;10.920;2024-01-11T00:05:02;-4.80;1.00
6740;DHT22;3407;49.882;10.920;2024-01-11T00:09:58;-4.90;99.90
6740;DHT22;3407;49.882;10.920;2024-01-11T00:14:53;-4.80;1.00
6740;DHT22;3407;49.882;10.920;2024-01-11T00:19:49;-4.70;1.00
6740;DHT22;3407;49.882;10.920;2024-01-11T00:24:45;-4.80;99.90
6740;DHT22;3407;49.882;10.920;2024-01-11T00:29:41;-4.90;99.90
6740;DHT22;3407;49.882;10.920;2024-01-11T00:34:36;-5.00;99.90
6740;DHT22;3407;49.882;10.920;2024-01-11T00:39:32;-5.00;99.90
6740;DHT22;3407;49.882;10.920;2024-01-11T00:44:28;-5.00;1.00
6740;DHT22;3407;49.882;10.920;2024-01-11T00:49:23;-5.20;19.20
6740;DHT22;3407;49.882;10.920;2024-01-11T00:54:18;-5.40;95.80
6740;DHT22;3407;49.882;10.920;2024-01-11T00:59:14;-5.50;99.90
6740;DHT22;3407;49.882;10.920;2024-01-11T01:04:09;-5.50;1.00
6740;DHT22;3407;49.882;10.920;2024-01-11T01:09:05;-5.70;15.50
6740;DHT22;3407;49.882;10.920;2024-01-11T01:14:00;-5.70;99.90
6740;DHT22;3407;49.882;10.920;2024-01-11T01:18:56;-5.70;1.00
6740;DHT22;3407;49.882;10.920;2024-01-11T01:23:52;-5.70;29.90
6740;DHT22;3407;49.882;10.920;2024-01-11T01:28:47;-5.70;99.90
6740;DHT22;3407;49.882;10.920;2024-01-11T01:33:43;-5.80;88.30
6740;DHT22;3407;49.882;10.920;2024-01-11T01:38:38;-5.90;99.90
6740;DHT22;3407;49.882;10.920;2024-01-11T01:43:34;-6.00;99.90
6740;DHT22;3407;49.882;10.920;2024-01-11T01:48:29;-6.00;99.90
6740;DHT22;3407;49.882;10.920;2024-01-11T01:53:27;-6.00;99.90
6740;DHT22;3407;49.882;10.920;2024-01-11T01:58:23;-6.00;99.90
6740;DHT22;3407;49.882;10.920;2024-01-11T02:03:19;-6.10;99.90
6740;DHT22;3407;49.882;10.920;2024-01-11T02:08:16;-6.20;37.80
6740;DHT22;3407;49.882;10.920;2024-01-11T02:13:13;-6.20;99.90
6740;DHT22;3407;49.882;10.920;2024-01-11T02:18:08;-6.30;1.00
6740;DHT22;3407;49.882;10.920;2024-01-11T02:23:07;-6.30;99.90
6740;DHT22;3407;49.882;10.920;2024-01-11T02:28:03;-6.40;1.00
6740;DHT22;3407;49.882;10.920;2024-01-11T02:32:59;-6.20;1.00
6740;DHT22;3407;49.882;10.920;2024-01-11T02:37:55;-6.20;99.90
6740;DHT22;3407;49.882;10.920;2024-01-11T02:42:51;-6.30;99.90
6740;DHT22;3407;49.882;10.920;2024-01-11T02:47:46;-6.40;99.90
6740;DHT22;3407;49.882;10.920;2024-01-11T02:52:42;-6.50;99.90
6740;DHT22;3407;49.882;10.920;2024-01-11T02:57:37;-6.50;61.60
6740;DHT22;3407;49.882;10.920;2024-01-11T03:02:33;-6.70;1.00
6740;DHT22;3407;49.882;10.920;2024-01-11T03:07:28;-6.80;1.00
6740;DHT22;3407;49.882;10.920;2024-01-11T03:12:25;-6.70;1.00
6740;DHT22;3407;49.882;10.920;2024-01-11T03:17:21;-6.70;1.00
6740;DHT22;3407;49.882;10.920;2024-01-11T03:22:17;-6.70;99.90
6740;DHT22;3407;49.882;10.920;2024-01-11T03:27:12;-6.80;1.00
6740;DHT22;3407;49.882;10.920;2024-01-11T03:32:08;-6.80;99.90
6740;DHT22;3407;49.882;10.920;2024-01-11T03:37:03;-6.80;99.90
6740;DHT22;3407;49.882;10.920;2024-01-11T03:41:59;-6.70;99.90
6740;DHT22;3407;49.882;10.920;2024-01-11T03:46:54;-6.80;93.20
6740;DHT22;3407;49.882;10.920;2024-01-11T03:51:50;-7.00;1.00
6740;DHT22;3407;49.882;10.920;2024-01-11T03:56:45;-7.00;99.90
6740;DHT22;3407;49.882;10.920;2024-01-11T04:01:41;-7.10;99.90
6740;DHT22;3407;49.882;10.920;2024-01-11T04:06:36;-7.10;99.90
6740;DHT22;3407;49.882;10.920;2024-01-11T04:11:32;-7.10;99.90
6740;DHT22;3407;49.882;10.920;2024-01-11T04:16:27;-7.00;1.00
6740;DHT22;3407;49.882;10.920;2024-01-11T04:21:24;-6.80;1.00
6740;DHT22;3407;49.882;10.920;2024-01-11T04:26:20;-6.60;1.00
6740;DHT22;3407;49.882;10.920;2024-01-11T04:31:16;-6.80;1.00
6740;DHT22;3407;49.882;10.920;2024-01-11T04:36:14;-7.00;99.90
6740;DHT22;3407;49.882;10.920;2024-01-11T04:41:11;-7.30;99.90
6740;DHT22;3407;49.882;10.920;2024-01-11T04:51:13;-7.40;99.90
6740;DHT22;3407;49.882;10.920;2024-01-11T04:56:10;-7.30;1.00
6740;DHT22;3407;49.882;10.920;2024-01-11T05:01:06;-7.40;1.00
6740;DHT22;3407;49.882;10.920;2024-01-11T05:06:02;-7.40;99.90
6740;DHT22;3407;49.882;10.920;2024-01-11T05:10:57;-7.40;1.00
6740;DHT22;3407;49.882;10.920;2024-01-11T05:15:53;-7.40;1.00
6740;DHT22;3407;49.882;10.920;2024-01-11T05:20:48;-7.40;1.00
6740;DHT22;3407;49.882;10.920;2024-01-11T05:25:44;-7.40;1.00
6740;DHT22;3407;49.882;10.920;2024-01-11T05:30:39;-7.50;99.90
6740;DHT22;3407;49.882;10.920;2024-01-11T05:35:35;-7.60;99.90
6740;DHT22;3407;49.882;10.920;2024-01-11T05:40:30;-7.60;1.00
6740;DHT22;3407;49.882;10.920;2024-01-11T05:45:26;-7.60;1.00
6740;DHT22;3407;49.882;10.920;2024-01-11T05:50:22;-7.50;1.00
6740;DHT22;3407;49.882;10.920;2024-01-11T05:55:19;-7.50;34.90
6740;DHT22;3407;49.882;10.920;2024-01-11T06:00:14;-7.50;99.90
6740;DHT22;3407;49.882;10.920;2024-01-11T06:05:10;-7.60;99.90
6740;DHT22;3407;49.882;10.920;2024-01-11T06:10:07;-7.70;99.90
6740;DHT22;3407;49.882;10.920;2024-01-11T06:15:04;-7.70;99.90
6740;DHT22;3407;49.882;10.920;2024-01-11T06:20:00;-7.70;99.90
6740;DHT22;3407;49.882;10.920;2024-01-11T06:24:56;-7.50;99.90
6740;DHT22;3407;49.882;10.920;2024-01-11T06:29:52;-7.60;1.00
6740;DHT22;3407;49.882;10.920;2024-01-11T06:34:48;-7.40;99.90
6740;DHT22;3407;49.882;10.920;2024-01-11T06:39:43;-7.60;1.00
6740;DHT22;3407;49.882;10.920;2024-01-11T06:44:39;-7.80;1.00
6740;DHT22;3407;49.882;10.920;2024-01-11T06:49:38;-7.80;76.20
6740;DHT22;3407;49.882;10.920;2024-01-11T06:54:35;-7.90;53.20
6740;DHT22;3407;49.882;10.920;2024-01-11T06:59:30;-7.90;19.50
6740;DHT22;3407;49.882;10.920;2024-01-11T07:04:25;-7.80;99.90
6740;DHT22;3407;49.882;10.920;2024-01-11T07:09:21;-7.80;1.00
6740;DHT22;3407;49.882;10.920;2024-01-11T07:14:17;-7.90;1.00
6740;DHT22;3407;49.882;10.920;2024-01-11T07:19:12;-7.90;1.00
6740;DHT22;3407;49.882;10.920;2024-01-11T07:24:08;-7.80;99.90
6740;DHT22;3407;49.882;10.920;2024-01-11T07:29:03;-7.60;99.90
6740;DHT22;3407;49.882;10.920;2024-01-11T07:34:00;-7.40;1.00
6740;DHT22;3407;49.882;10.920;2024-01-11T07:38:56;-7.10;1.00
6740;DHT22;3407;49.882;10.920;2024-01-11T07:43:51;-6.90;99.90
6740;DHT22;3407;49.882;10.920;2024-01-11T07:48:47;-6.90;1.00
6740;DHT22;3407;49.882;10.920;2024-01-11T07:53:42;-7.00;1.00
6740;DHT22;3407;49.882;10.920;2024-01-11T07:58:38;-7.10;1.00
6740;DHT22;3407;49.882;10.920;2024-01-11T08:03:33;-7.20;1.00
6740;DHT22;3407;49.882;10.920;2024-01-11T08:08:30;-7.00;59.00
6740;DHT22;3407;49.882;10.920;2024-01-11T08:13:25;-6.80;99.90
6740;DHT22;3407;49.882;10.920;2024-01-11T08:18:21;-6.70;6.50
6740;DHT22;3407;49.882;10.920;2024-01-11T08:23:16;-6.60;34.40
6740;DHT22;3407;49.882;10.920;2024-01-11T08:28:12;-6.60;59.20
6740;DHT22;3407;49.882;10.920;2024-01-11T08:33:07;-6.60;99.90
6740;DHT22;3407;49.882;10.920;2024-01-11T08:38:03;-6.30;1.00
6740;DHT22;3407;49.882;10.920;2024-01-11T08:42:59;-5.90;99.90
6740;DHT22;3407;49.882;10.920;2024-01-11T08:47:56;-5.60;99.90
6740;DHT22;3407;49.882;10.920;2024-01-11T08:52:51;-5.30;17.40
6740;DHT22;3407;49.882;10.920;2024-01-11T08:57:47;-5.10;1.00
6740;DHT22;3407;49.882;10.920;2024-01-11T09:02:44;-5.10;1.00
6740;DHT22;3407;49.882;10.920;2024-01-11T09:07:39;-4.90;99.90
6740;DHT22;3407;49.882;10.920;2024-01-11T09:12:35;-4.60;1.00
6740;DHT22;3407;49.882;10.920;2024-01-11T09:17:31;-4.30;99.90
6740;DHT22;3407;49.882;10.920;2024-01-11T09:22:27;-3.90;12.20
6740;DHT22;3407;49.882;10.920;2024-01-11T09:27:23;-3.60;1.00
6740;DHT22;3407;49.882;10.920;2024-01-11T09:32:18;-3.30;99.90
6740;DHT22;3407;49.882;10.920;2024-01-11T09:37:15;-3.00;1.00
6740;DHT22;3407;49.882;10.920;2024-01-11T09:42:11;-2.60;99.90
6740;DHT22;3407;49.882;10.920;2024-01-11T09:47:10;-2.60;99.90
6740;DHT22;3407;49.882;10.920;2024-01-11T09:52:06;-2.40;99.90
6740;DHT22;3407;49.882;10.920;2024-01-11T09:57:06;-2.20;71.90
6740;DHT22;3407;49.882;10.920;2024-01-11T10:02:02;-2.10;1.00
6740;DHT22;3407;49.882;10.920;2024-01-11T10:06:59;-2.00;1.00
6740;DHT22;3407;49.882;10.920;2024-01-11T10:11:55;-1.90;1.00
6740;DHT22;3407;49.882;10.920;2024-01-11T10:16:51;-1.60;1.00
6740;DHT22;3407;49.882;10.920;2024-01-11T10:21:48;-1.10;1.00
6740;DHT22;3407;49.882;10.920;2024-01-11T10:26:44;-0.20;1.00
6740;DHT22;3407;49.882;10.920;2024-01-11T10:31:40;1.20;1.00
6740;DHT22;3407;49.882;10.920;2024-01-11T10:36:36;2.50;99.90
6740;DHT22;3407;49.882;10.920;2024-01-11T10:41:39;3.40;99.90
6740;DHT22;3407;49.882;10.920;2024-01-11T10:46:38;3.30;99.90
6740;DHT22;3407;49.882;10.920;2024-01-11T10:51:34;3.90;99.90
6740;DHT22;3407;49.882;10.920;2024-01-11T10:56:30;3.90;99.90
6740;DHT22;3407;49.882;10.920;2024-01-11T11:01:27;4.00;99.90
6740;DHT22;3407;49.882;10.920;2024-01-11T11:06:23;3.80;99.90
6740;DHT22;3407;49.882;10.920;2024-01-11T11:11:19;3.70;99.90
6740;DHT22;3407;49.882;10.920;2024-01-11T11:16:16;3.40;99.90
6740;DHT22;3407;49.882;10.920;2024-01-11T11:21:11;3.50;99.90
6740;DHT22;3407;49.882;10.920;2024-01-11T11:26:14;3.80;99.90
6740;DHT22;3407;49.882;10.920;2024-01-11T11:31:11;4.00;99.90
6740;DHT22;3407;49.882;10.920;2024-01-11T11:36:12;4.50;99.90
6740;DHT22;3407;49.882;10.920;2024-01-11T11:41:09;4.90;99.90
6740;DHT22;3407;49.882;10.920;2024-01-11T11:46:05;5.00;99.90
6740;DHT22;3407;49.882;10.920;2024-01-11T11:56:01;6.40;99.90
6740;DHT22;3407;49.882;10.920;2024-01-11T12:00:58;6.70;99.90
6740;DHT22;3407;49.882;10.920;2024-01-11T12:05:54;6.60;99.90
6740;DHT22;3407;49.882;10.920;2024-01-11T12:10:51;6.30;99.90
6740;DHT22;3407;49.882;10.920;2024-01-11T12:15:47;6.00;99.90
6740;DHT22;3407;49.882;10.920;2024-01-11T12:20:43;5.90;99.90
6740;DHT22;3407;49.882;10.920;2024-01-11T12:25:40;6.10;99.90
6740;DHT22;3407;49.882;10.920;2024-01-11T12:30:35;6.30;99.90
6740;DHT22;3407;49.882;10.920;2024-01-11T12:35:32;6.30;99.90
6740;DHT22;3407;49.882;10.920;2024-01-11T12:40:27;5.70;99.90
6740;DHT22;3407;49.882;10.920;2024-01-11T12:45:24;5.20;99.90
6740;DHT22;3407;49.882;10.920;2024-01-11T12:50:25;5.00;99.90
6740;DHT22;3407;49.882;10.920;2024-01-11T12:55:20;4.70;99.90
6740;DHT22;3407;49.882;10.920;2024-01-11T13:00:16;4.60;99.90
6740;DHT22;3407;49.882;10.920;2024-01-11T13:05:12;4.30;99.90
6740;DHT22;3407;49.882;10.920;2024-01-11T13:10:08;4.00;99.90
6740;DHT22;3407;49.882;10.920;2024-01-11T13:15:03;4.00;99.90
6740;DHT22;3407;49.882;10.920;2024-01-11T13:20:00;4.30;99.90
6740;DHT22;3407;49.882;10.920;2024-01-11T13:24:56;4.80;99.90
6740;DHT22;3407;49.882;10.920;2024-01-11T13:29:52;5.40;99.90
6740;DHT22;3407;49.882;10.920;2024-01-11T13:34:47;5.30;99.90
6740;DHT22;3407;49.882;10.920;2024-01-11T13:39:43;5.00;99.90
6740;DHT22;3407;49.882;10.920;2024-01-11T13:44:38;4.20;99.90
6740;DHT22;3407;49.882;10.920;2024-01-11T13:49:34;3.60;99.90
6740;DHT22;3407;49.882;10.920;2024-01-11T13:54:30;3.30;99.90
6740;DHT22;3407;49.882;10.920;2024-01-11T13:59:25;3.20;99.90
6740;DHT22;3407;49.882;10.920;2024-01-11T14:04:21;3.10;99.90
6740;DHT22;3407;49.882;10.920;2024-01-11T14:09:18;3.00;99.90
6740;DHT22;3407;49.882;10.920;2024-01-11T14:14:14;2.90;99.90
6740;DHT22;3407;49.882;10.920;2024-01-11T14:19:09;2.70;99.90
6740;DHT22;3407;49.882;10.920;2024-01-11T14:24:06;2.50;99.90
6740;DHT22;3407;49.882;10.920;2024-01-11T14:29:02;2.20;99.90
6740;DHT22;3407;49.882;10.920;2024-01-11T14:33:58;2.00;99.90
6740;DHT22;3407;49.882;10.920;2024-01-11T14:38:54;1.90;99.90
6740;DHT22;3407;49.882;10.920;2024-01-11T14:43:49;1.70;99.90
6740;DHT22;3407;49.882;10.920;2024-01-11T14:48:45;1.60;99.90
6740;DHT22;3407;49.882;10.920;2024-01-11T14:53:41;1.50;99.90
6740;DHT22;3407;49.882;10.920;2024-01-11T14:58:36;1.40;99.90
6740;DHT22;3407;49.882;10.920;2024-01-11T15:03:32;1.30;99.90
6740;DHT22;3407;49.882;10.920;2024-01-11T15:08:27;1.20;99.90
6740;DHT22;3407;49.882;10.920;2024-01-11T15:13:23;1.00;99.90
6740;DHT22;3407;49.882;10.920;2024-01-11T15:18:18;0.80;99.90
6740;DHT22;3407;49.882;10.920;2024-01-11T15:23:15;0.70;99.90
6740;DHT22;3407;49.882;10.920;2024-01-11T15:28:11;0.60;99.90
6740;DHT22;3407;49.882;10.920;2024-01-11T15:33:07;0.50;99.90
6740;DHT22;3407;49.882;10.920;2024-01-11T15:38:02;0.40;99.90
6740;DHT22;3407;49.882;10.920;2024-01-11T15:42:58;0.20;99.90
6740;DHT22;3407;49.882;10.920;2024-01-11T15:47:53;0.10;99.90
6740;DHT22;3407;49.882;10.920;2024-01-11T15:52:49;-0.10;99.90
6740;DHT22;3407;49.882;10.920;2024-01-11T15:57:44;-0.20;99.90
6740;DHT22;3407;49.882;10.920;2024-01-11T16:02:40;-0.40;99.90
6740;DHT22;3407;49.882;10.920;2024-01-11T16:07:37;-0.60;99.90
6740;DHT22;3407;49.882;10.920;2024-01-11T16:12:32;-0.70;99.90
6740;DHT22;3407;49.882;10.920;2024-01-11T16:17:28;-0.80;99.90
6740;DHT22;3407;49.882;10.920;2024-01-11T16:22:23;-0.90;99.90
6740;DHT22;3407;49.882;10.920;2024-01-11T16:27:20;-1.00;99.90
6740;DHT22;3407;49.882;10.920;2024-01-11T16:32:15;-1.20;99.90
6740;DHT22;3407;49.882;10.920;2024-01-11T16:37:12;-1.30;99.90
6740;DHT22;3407;49.882;10.920;2024-01-11T16:42:09;-1.40;1.00
6740;DHT22;3407;49.882;10.920;2024-01-11T16:47:07;-1.50;1.00
6740;DHT22;3407;49.882;10.920;2024-01-11T16:52:03;-1.60;1.00
6740;DHT22;3407;49.882;10.920;2024-01-11T16:57:00;-1.70;1.00
6740;DHT22;3407;49.882;10.920;2024-01-11T17:01:55;-1.70;1.00
6740;DHT22;3407;49.882;10.920;2024-01-11T17:06:51;-1.70;1.00
6740;DHT22;3407;49.882;10.920;2024-01-11T17:11:46;-1.80;1.00
6740;DHT22;3407;49.882;10.920;2024-01-11T17:16:42;-1.80;1.00
6740;DHT22;3407;49.882;10.920;2024-01-11T17:21:38;-1.90;1.00
6740;DHT22;3407;49.882;10.920;2024-01-11T17:26:33;-2.00;1.00
6740;DHT22;3407;49.882;10.920;2024-01-11T17:31:29;-2.10;1.00
6740;DHT22;3407;49.882;10.920;2024-01-11T17:36:25;-2.10;1.00
6740;DHT22;3407;49.882;10.920;2024-01-11T17:41:22;-2.20;1.00
6740;DHT22;3407;49.882;10.920;2024-01-11T17:46:21;-2.30;1.00
6740;DHT22;3407;49.882;10.920;2024-01-11T17:51:18;-2.40;33.30
6740;DHT22;3407;49.882;10.920;2024-01-11T17:56:14;-2.40;99.90
6740;DHT22;3407;49.882;10.920;2024-01-11T18:01:21;-2.50;99.90
6740;DHT22;3407;49.882;10.920;2024-01-11T18:06:18;-2.50;99.90
6740;DHT22;3407;49.882;10.920;2024-01-11T18:11:13;-2.60;99.90
6740;DHT22;3407;49.882;10.920;2024-01-11T18:16:09;-2.70;99.90
6740;DHT22;3407;49.882;10.920;2024-01-11T18:21:04;-2.80;99.90
6740;DHT22;3407;49.882;10.920;2024-01-11T18:26:00;-2.70;99.90
6740;DHT22;3407;49.882;10.920;2024-01-11T18:30:56;-2.80;99.90
6740;DHT22;3407;49.882;10.920;2024-01-11T18:35:52;-2.90;99.90
6740;DHT22;3407;49.882;10.920;2024-01-11T18:40:47;-3.00;99.90
6740;DHT22;3407;49.882;10.920;2024-01-11T18:45:43;-3.00;1.00
6740;DHT22;3407;49.882;10.920;2024-01-11T18:50:39;-3.00;1.00
6740;DHT22;3407;49.882;10.920;2024-01-11T18:55:35;-3.10;1.00
6740;DHT22;3407;49.882;10.920;2024-01-11T19:00:30;-3.10;18.90
6740;DHT22;3407;49.882;10.920;2024-01-11T19:05:26;-3.20;82.60
6740;DHT22;3407;49.882;10.920;2024-01-11T19:10:21;-3.30;99.90
6740;DHT22;3407;49.882;10.920;2024-01-11T19:15:17;-3.30;99.90
6740;DHT22;3407;49.882;10.920;2024-01-11T19:20:13;-3.30;99.90
6740;DHT22;3407;49.882;10.920;2024-01-11T19:25:08;-3.40;99.90
6740;DHT22;3407;49.882;10.920;2024-01-11T19:30:04;-3.40;99.90
6740;DHT22;3407;49.882;10.920;2024-01-11T19:35:03;-3.50;99.90
6740;DHT22;3407;49.882;10.920;2024-01-11T19:39:58;-3.40;99.90
6740;DHT22;3407;49.882;10.920;2024-01-11T19:44:54;-3.60;99.90
6740;DHT22;3407;49.882;10.920;2024-01-11T19:49:49;-3.70;99.90
6740;DHT22;3407;49.882;10.920;2024-01-11T19:54:45;-3.80;99.90
6740;DHT22;3407;49.882;10.920;2024-01-11T19:59:41;-3.80;1.00
6740;DHT22;3407;49.882;10.920;2024-01-11T20:04:37;-3.90;1.00
6740;DHT22;3407;49.882;10.920;2024-01-11T20:09:32;-4.00;1.00
6740;DHT22;3407;49.882;10.920;2024-01-11T20:14:28;-3.90;1.00
6740;DHT22;3407;49.882;10.920;2024-01-11T20:19:23;-3.90;1.00
6740;DHT22;3407;49.882;10.920;2024-01-11T20:24:19;-4.10;1.00
6740;DHT22;3407;49.882;10.920;2024-01-11T20:29:14;-4.10;1.00
6740;DHT22;3407;49.882;10.920;2024-01-11T20:34:10;-4.10;1.00
6740;DHT22;3407;49.882;10.920;2024-01-11T20:39:08;-4.20;1.00
6740;DHT22;3407;49.882;10.920;2024-01-11T20:44:04;-4.40;1.00
6740;DHT22;3407;49.882;10.920;2024-01-11T20:48:59;-4.40;1.00
6740;DHT22;3407;49.882;10.920;2024-01-11T20:53:55;-4.40;1.00
6740;DHT22;3407;49.882;10.920;2024-01-11T20:58:53;-4.50;1.00
6740;DHT22;3407;49.882;10.920;2024-01-11T21:03:48;-4.50;99.90
6740;DHT22;3407;49.882;10.920;2024-01-11T21:08:44;-4.50;1.00
6740;DHT22;3407;49.882;10.920;2024-01-11T21:13:40;-4.60;99.90
6740;DHT22;3407;49.882;10.920;2024-01-11T21:18:35;-4.50;1.00
6740;DHT22;3407;49.882;10.920;2024-01-11T21:23:31;-4.50;1.00
6740;DHT22;3407;49.882;10.920;2024-01-11T21:28:27;-4.50;1.00
6740;DHT22;3407;49.882;10.920;2024-01-11T21:33:22;-4.40;99.90
6740;DHT22;3407;49.882;10.920;2024-01-11T21:38:19;-4.30;1.00
6740;DHT22;3407;49.882;10.920;2024-01-11T21:43:15;-4.30;99.90
6740;DHT22;3407;49.882;10.920;2024-01-11T21:48:11;-4.50;27.60
6740;DHT22;3407;49.882;10.920;2024-01-11T21:53:06;-4.50;1.00
6740;DHT22;3407;49.882;10.920;2024-01-11T21:58:02;-4.60;1.00
6740;DHT22;3407;49.882;10.920;2024-01-11T22:02:58;-4.70;94.90
6740;DHT22;3407;49.882;10.920;2024-01-11T22:07:54;-4.80;99.90
6740;DHT22;3407;49.882;10.920;2024-01-11T22:12:49;-4.80;99.90
6740;DHT22;3407;49.882;10.920;2024-01-11T22:17:46;-4.90;99.90
6740;DHT22;3407;49.882;10.920;2024-01-11T22:22:42;-5.00;1.00
6740;DHT22;3407;49.882;10.920;2024-01-11T22:27:37;-5.10;74.00
6740;DHT22;3407;49.882;10.920;2024-01-11T22:32:35;-5.10;99.90
6740;DHT22;3407;49.882;10.920;2024-01-11T22:37:32;-5.10;99.90
6740;DHT22;3407;49.882;10.920;2024-01-11T22:42:30;-5.20;99.90
6740;DHT22;3407;49.882;10.920;2024-01-11T22:47:26;-5.20;1.00
6740;DHT22;3407;49.882;10.920;2024-01-11T22:52:22;-5.20;99.90
6740;DHT22;3407;49.882;10.920;2024-01-11T22:57:17;-5.10;99.90
6740;DHT22;3407;49.882;10.920;2024-01-11T23:02:13;-5.10;1.00
6740;DHT22;3407;49.882;10.920;2024-01-11T23:07:08;-4.80;1.00
6740;DHT22;3407;49.882;10.920;2024-01-11T23:12:04;-4.50;95.90
6740;DHT22;3407;49.882;10.920;2024-01-11T23:17:00;-4.40;1.00
6740;DHT22;3407;49.882;10.920;2024-01-11T23:21:55;-4.30;1.00
6740;DHT22;3407;49.882;10.920;2024-01-11T23:26:51;-4.40;99.90
6740;DHT22;3407;49.882;10.920;2024-01-11T23:31:46;-4.30;1.00
6740;DHT22;3407;49.882;10.920;2024-01-11T23:36:42;-4.20;1.00
6740;DHT22;3407;49.882;10.920;2024-01-11T23:41:37;-4.10;27.60
6740;DHT22;3407;49.882;10.920;2024-01-11T23:46:33;-4.00;99.90
6740;DHT22;3407;49.882;10.920;2024-01-11T23:51:29;-3.80;1.00
6740;DHT22;3407;49.882;10.920;2024-01-11T23:56:24;-3.60;99.90
